Time;durP1;ratioP1;P1;durP2;ratioP2;P2;SDS_P1;SDS_P2;PMS_P1;PMS_P2;Temp;Humidity;BMP_temperature;BMP_pressure;BME280_temperature;BME280_humidity;BME280_pressure;Samples;Min_cycle;Max_cycle;Signal;HPM_P1;HPM_P2
2022/04/02 00:01:41;;;;;;;9.90;7.00;;;;;;;4.25;77.81;97382.13;5092624;28;20024;-48
2022/04/02 00:04:07;;;;;;;8.13;7.22;;;;;;;4.19;77.82;97394.84;5092593;28;20425;-48
2022/04/02 00:06:33;;;;;;;7.80;6.55;;;;;;;4.19;78.25;97402.66;5092526;28;20397;-48
2022/04/02 00:08:59;;;;;;;11.77;10.15;;;;;;;4.10;77.71;97398.59;5092457;28;20032;-47
2022/04/02 00:11:25;;;;;;;11.40;9.95;;;;;;;4.03;78.27;97410.72;5092448;28;20021;-48
2022/04/02 00:13:51;;;;;;;8.30;7.43;;;;;;;4.04;79.14;97409.72;5092430;28;20485;-48
2022/04/02 00:16:17;;;;;;;11.82;9.45;;;;;;;4.12;79.87;97411.38;5091014;28;20516;-48
2022/04/02 00:18:44;;;;;;;10.50;8.40;;;;;;;4.15;79.40;97419.59;5091055;28;20101;-48
2022/04/02 00:21:10;;;;;;;11.32;9.43;;;;;;;4.11;78.82;97409.78;5091005;28;20028;-48
2022/04/02 00:23:39;;;;;;;10.45;9.38;;;;;;;4.00;78.20;97411.94;5092264;28;20024;-49
2022/04/02 00:26:08;;;;;;;15.57;11.35;;;;;;;3.88;78.10;97417.81;5092258;28;20099;-48
2022/04/02 00:28:38;;;;;;;13.40;7.82;;;;;;;3.80;78.88;97408.38;5091921;28;20048;-48
2022/04/02 00:31:05;;;;;;;10.98;8.70;;;;;;;3.75;78.43;97421.13;5092070;28;20031;-50
2022/04/02 00:33:31;;;;;;;13.48;12.18;;;;;;;3.71;79.12;97430.28;5092121;28;20020;-48
2022/04/02 00:35:57;;;;;;;13.68;11.40;;;;;;;3.68;79.25;97420.25;5092101;28;20012;-48
2022/04/02 00:38:23;;;;;;;9.75;8.25;;;;;;;3.68;79.31;97430.63;5090719;28;20154;-48
2022/04/02 00:40:49;;;;;;;16.70;13.27;;;;;;;3.67;79.56;97437.63;5092102;28;20016;-48
2022/04/02 00:43:27;;;;;;;11.68;8.27;;;;;;;3.61;79.72;97433.19;5091997;28;20035;-48
2022/04/02 00:45:54;;;;;;;13.55;11.38;;;;;;;3.71;80.35;97443.25;5091957;28;20016;-48
2022/04/02 00:48:21;;;;;;;16.35;13.68;;;;;;;3.80;80.82;97435.13;5091947;28;20031;-49
2022/04/02 00:50:52;;;;;;;14.65;12.20;;;;;;;3.80;79.81;97434.31;5091878;28;20385;-47
2022/04/02 00:53:18;;;;;;;14.63;13.10;;;;;;;3.68;78.85;97443.59;5091393;28;20028;-49
2022/04/02 00:55:45;;;;;;;16.85;13.48;;;;;;;3.64;79.50;97434.59;5090520;28;20020;-48
2022/04/02 00:58:11;;;;;;;13.02;9.32;;;;;;;3.61;78.96;97453.94;5091863;28;20027;-49
2022/04/02 01:00:42;;;;;;;14.65;11.73;;;;;;;3.63;78.92;97449.34;5091783;28;20027;-49
2022/04/02 01:03:10;;;;;;;18.33;16.23;;;;;;;3.67;78.39;97445.41;5090483;28;20182;-48
2022/04/02 01:05:37;;;;;;;17.75;14.18;;;;;;;3.67;78.42;97448.00;5091734;28;20423;-49
2022/04/02 01:08:06;;;;;;;14.40;10.30;;;;;;;3.79;79.19;97456.06;5091822;28;20052;-48
2022/04/02 01:10:38;;;;;;;14.75;12.13;;;;;;;3.85;78.89;97446.75;5091668;28;20039;-48
2022/04/02 01:13:05;;;;;;;17.85;14.70;;;;;;;3.80;78.75;97455.91;5091759;28;20028;-47
2022/04/02 01:15:31;;;;;;;15.60;12.27;;;;;;;3.83;79.16;97456.50;5091695;28;20096;-48
2022/04/02 01:17:57;;;;;;;18.08;15.30;;;;;;;3.91;79.55;97457.16;5090349;28;20020;-46
2022/04/02 01:20:24;;;;;;;16.52;12.70;;;;;;;3.91;78.61;97453.78;5090254;28;20024;-49
2022/04/02 01:22:50;;;;;;;16.05;10.85;;;;;;;3.83;77.04;97452.13;5090341;28;20016;-47
2022/04/02 01:25:16;;;;;;;16.15;12.38;;;;;;;3.68;76.59;97453.97;5091581;28;20021;-49
2022/04/02 01:27:43;;;;;;;22.88;16.42;;;;;;;3.67;78.16;97460.16;5091612;28;20020;-48
2022/04/02 01:30:10;;;;;;;23.25;16.35;;;;;;;3.78;78.46;97463.06;5091265;28;20044;-47
2022/04/02 01:32:35;;;;;;;18.25;13.52;;;;;;;3.83;77.63;97464.31;5091498;28;20028;-47
2022/04/02 01:35:01;;;;;;;31.48;16.50;;;;;;;3.92;78.14;97466.53;5091496;28;20100;-47
2022/04/02 01:37:27;;;;;;;21.30;16.27;;;;;;;3.97;77.14;97466.81;5091444;28;20035;-46
2022/04/02 01:39:53;;;;;;;23.08;13.45;;;;;;;3.92;76.92;97465.75;5091471;28;20032;-46
2022/04/02 01:42:24;;;;;;;22.42;15.38;;;;;;;3.89;76.92;97461.75;5091429;28;20027;-47
2022/04/02 01:44:53;;;;;;;20.65;15.85;;;;;;;3.99;77.79;97456.25;5091551;28;20100;-47
2022/04/02 01:47:20;;;;;;;15.23;12.00;;;;;;;4.06;76.49;97457.06;5091360;28;20020;-46
2022/04/02 01:49:47;;;;;;;21.38;15.93;;;;;;;3.99;76.21;97467.41;5091310;28;20035;-47
2022/04/02 01:52:16;;;;;;;15.23;11.77;;;;;;;3.91;75.17;97448.59;5091303;28;20449;-48
2022/04/02 01:54:43;;;;;;;19.00;11.35;;;;;;;3.83;74.90;97462.50;5091393;28;20035;-47
2022/04/02 01:57:09;;;;;;;19.70;14.63;;;;;;;3.77;74.09;97471.81;5091353;28;20428;-47
2022/04/02 01:59:35;;;;;;;9.60;7.63;;;;;;;3.67;74.67;97471.34;5089956;28;20032;-46
2022/04/02 02:02:01;;;;;;;13.55;9.63;;;;;;;3.69;74.54;97471.97;5091252;28;20027;-47
2022/04/02 02:04:31;;;;;;;17.58;12.88;;;;;;;3.69;73.81;97476.34;5091716;28;20031;-47
2022/04/02 02:06:56;;;;;;;18.58;14.55;;;;;;;3.78;74.60;97472.63;5094862;28;20036;-47
2022/04/02 02:09:22;;;;;;;16.70;13.07;;;;;;;3.85;74.45;97483.06;5094702;28;20397;-48
2022/04/02 02:11:48;;;;;;;19.42;13.73;;;;;;;3.91;73.48;97488.31;5093450;28;20070;-46
2022/04/02 02:14:13;;;;;;;20.23;13.77;;;;;;;3.90;72.37;97483.31;5094768;28;20569;-45
2022/04/02 02:16:39;;;;;;;17.23;14.20;;;;;;;3.90;72.83;97481.50;5094917;28;20017;-47
2022/04/02 02:19:05;;;;;;;21.77;15.95;;;;;;;3.86;73.59;97490.66;5093323;28;20107;-45
2022/04/02 02:21:30;;;;;;;18.10;14.98;;;;;;;3.86;73.69;97489.84;5093212;28;20110;-46
2022/04/02 02:23:56;;;;;;;21.25;16.23;;;;;;;3.89;72.86;97492.91;5093196;28;20040;-46
2022/04/02 02:26:23;;;;;;;18.67;14.05;;;;;;;3.99;74.05;97484.78;5094474;28;20048;-45
2022/04/02 02:28:49;;;;;;;18.98;14.88;;;;;;;4.07;73.84;97489.03;5092865;28;20052;-46
2022/04/02 02:31:15;;;;;;;16.65;13.88;;;;;;;4.05;73.24;97478.84;5094329;28;20024;-47
2022/04/02 02:36:25;;;;;;;16.52;14.30;;;;;;;3.94;73.82;97481.94;5094350;28;20528;-46
2022/04/02 02:38:52;;;;;;;12.73;10.73;;;;;;;3.85;72.98;97457.91;5094219;28;20024;-46
2022/04/02 02:41:18;;;;;;;18.70;16.30;;;;;;;3.76;74.01;97480.63;5094183;28;20412;-46
2022/04/02 02:43:44;;;;;;;14.27;10.63;;;;;;;3.78;74.28;97477.81;5094206;28;20088;-45
2022/04/02 02:46:14;;;;;;;15.75;10.93;;;;;;;3.75;73.17;97489.38;5092707;28;20032;-46
2022/04/02 02:48:40;;;;;;;16.35;9.48;;;;;;;3.67;73.61;97486.91;5094451;28;20037;-45
2022/04/02 02:51:06;;;;;;;19.33;14.68;;;;;;;3.66;73.13;97479.31;5093966;28;20021;-47
2022/04/02 02:53:32;;;;;;;13.13;10.45;;;;;;;3.86;74.05;97482.06;5094006;28;20398;-46
2022/04/02 02:55:58;;;;;;;20.67;12.77;;;;;;;3.96;73.25;97485.97;5093910;28;20024;-46
2022/04/02 02:58:24;;;;;;;15.88;14.05;;;;;;;4.00;73.15;97497.59;5092527;28;20464;-46
2022/04/02 03:00:49;;;;;;;18.38;14.38;;;;;;;3.92;71.55;97489.09;5093854;28;20024;-47
2022/04/02 03:03:15;;;;;;;17.17;14.50;;;;;;;3.91;72.01;97490.91;5092476;28;20024;-47
2022/04/02 03:05:41;;;;;;;15.20;12.73;;;;;;;3.93;72.38;97482.94;5093951;28;20509;-46
2022/04/02 03:08:07;;;;;;;14.55;10.68;;;;;;;3.92;70.19;97478.72;5092353;28;20085;-46
2022/04/02 03:10:34;;;;;;;13.07;11.15;;;;;;;3.95;70.93;97488.75;5093527;28;20020;-45
2022/04/02 03:13:00;;;;;;;14.50;11.70;;;;;;;3.98;70.22;97460.63;5093594;28;20527;-47
2022/04/02 03:15:26;;;;;;;13.23;10.63;;;;;;;4.00;69.91;97501.97;5093338;28;20028;-46
2022/04/02 03:17:53;;;;;;;21.70;15.93;;;;;;;4.08;70.70;97498.44;5093470;28;20027;-45
2022/04/02 03:20:21;;;;;;;13.45;10.85;;;;;;;4.12;70.16;97497.84;5093423;28;20555;-46
2022/04/02 03:22:49;;;;;;;17.17;13.57;;;;;;;4.19;69.70;97500.53;5092091;28;20401;-47
2022/04/02 03:25:17;;;;;;;16.38;12.48;;;;;;;4.22;69.23;97509.72;5093236;28;20508;-46
2022/04/02 03:27:44;;;;;;;22.20;15.52;;;;;;;4.20;69.32;97513.31;5093358;28;20024;-46
2022/04/02 03:30:12;;;;;;;18.60;13.20;;;;;;;4.15;68.63;97517.47;5092969;28;20131;-47
2022/04/02 03:32:39;;;;;;;18.08;12.70;;;;;;;4.12;68.94;97507.44;5093241;28;20546;-47
2022/04/02 03:35:06;;;;;;;12.20;9.45;;;;;;;4.14;68.18;97501.06;5093042;28;20020;-46
2022/04/02 03:37:36;;;;;;;17.95;11.05;;;;;;;4.04;67.68;97518.75;5093102;28;20483;-46
2022/04/02 03:40:04;;;;;;;16.67;11.50;;;;;;;4.00;68.19;97526.13;5093001;28;20043;-46
2022/04/02 03:42:29;;;;;;;14.45;12.68;;;;;;;4.04;68.63;97525.75;5093056;28;20795;-45
2022/04/02 03:44:55;;;;;;;23.35;14.18;;;;;;;4.19;70.61;97535.06;5092944;28;20028;-46
2022/04/02 03:47:22;;;;;;;12.60;10.90;;;;;;;4.34;70.02;97542.75;5092861;28;20016;-46
2022/04/02 03:49:51;;;;;;;13.10;11.57;;;;;;;4.36;70.80;97532.19;5091490;28;20020;-45
2022/04/02 03:52:16;;;;;;;13.30;11.68;;;;;;;4.35;70.48;97541.00;5092760;28;20016;-46
2022/04/02 03:54:42;;;;;;;19.33;15.23;;;;;;;4.31;71.71;97531.97;5092841;28;20533;-46
2022/04/02 03:57:13;;;;;;;14.50;12.10;;;;;;;4.30;72.09;97525.94;5091382;28;20074;-46
2022/04/02 03:59:40;;;;;;;13.60;11.80;;;;;;;4.11;71.44;97534.41;5092784;28;20028;-45
2022/04/02 04:02:07;;;;;;;14.50;12.77;;;;;;;3.86;72.66;97513.22;5092662;28;20020;-45
2022/04/02 04:04:33;;;;;;;17.67;14.98;;;;;;;3.73;74.00;97548.44;5092623;28;20259;-46
2022/04/02 04:07:00;;;;;;;18.55;13.70;;;;;;;3.84;74.50;97548.94;5092567;28;20498;-45
2022/04/02 04:09:27;;;;;;;17.77;11.45;;;;;;;3.78;73.95;97540.91;5092496;28;20074;-45
2022/04/02 04:11:54;;;;;;;14.85;13.25;;;;;;;3.65;74.08;97551.16;5092449;28;20020;-44
2022/04/02 04:14:20;;;;;;;13.45;10.70;;;;;;;3.62;75.40;97556.69;5091104;28;20077;-45
2022/04/02 04:16:47;;;;;;;14.63;13.10;;;;;;;3.63;75.44;97552.34;5091074;28;20020;-45
2022/04/02 04:19:13;;;;;;;19.65;12.40;;;;;;;3.60;75.72;97556.06;5091018;28;20032;-45
2022/04/02 04:21:40;;;;;;;15.77;14.07;;;;;;;3.69;76.42;97560.16;5092288;28;20016;-44
2022/04/02 04:24:07;;;;;;;20.45;14.52;;;;;;;3.67;75.91;97566.53;5092276;28;20028;-45
2022/04/02 04:26:33;;;;;;;19.25;13.73;;;;;;;3.75;76.67;97566.44;5092056;28;20123;-46
2022/04/02 04:29:00;;;;;;;10.68;9.02;;;;;;;3.78;76.04;97561.69;5091375;28;20468;-45
2022/04/02 04:31:26;;;;;;;16.77;12.52;;;;;;;3.85;76.62;97584.28;5092163;28;20093;-47
2022/04/02 04:33:52;;;;;;;14.23;12.52;;;;;;;3.79;75.70;97576.25;5092183;28;20126;-47
2022/04/02 04:36:19;;;;;;;26.40;18.65;;;;;;;3.72;76.48;97566.78;5107704;28;20082;-47
2022/04/02 04:38:46;;;;;;;20.48;16.10;;;;;;;3.58;76.25;97591.78;5092054;28;20091;-46
2022/04/02 04:41:13;;;;;;;12.00;10.55;;;;;;;3.55;76.25;97602.53;5092046;28;20020;-45
2022/04/02 04:43:41;;;;;;;23.38;19.83;;;;;;;3.51;77.08;97603.88;5092093;28;20092;-46
2022/04/02 04:46:08;;;;;;;15.27;13.68;;;;;;;3.62;77.11;97598.19;5090593;28;20405;-47
2022/04/02 04:48:37;;;;;;;16.08;13.45;;;;;;;3.66;77.13;97601.25;5092237;28;20059;-47
2022/04/02 04:51:05;;;;;;;18.38;15.55;;;;;;;3.63;77.08;97609.41;5091802;28;20073;-48
2022/04/02 04:53:31;;;;;;;22.30;12.35;;;;;;;3.58;77.70;97618.53;5091915;28;20020;-48
2022/04/02 04:55:58;;;;;;;18.02;13.52;;;;;;;3.63;77.60;97622.38;5091915;28;20028;-48
2022/04/02 04:58:24;;;;;;;17.48;11.45;;;;;;;3.64;76.07;97624.75;5090472;28;20028;-46
2022/04/02 05:00:50;;;;;;;15.30;13.68;;;;;;;3.52;76.87;97616.69;5091832;28;20050;-48
2022/04/02 05:03:16;;;;;;;24.92;12.80;;;;;;;3.58;77.92;97626.31;5091808;28;20058;-48
2022/04/02 05:05:41;;;;;;;15.85;12.77;;;;;;;3.66;77.69;97625.38;5090444;28;20056;-47
2022/04/02 05:08:08;;;;;;;14.27;10.73;;;;;;;3.65;77.64;97616.00;5090435;28;20020;-48
2022/04/02 05:10:38;;;;;;;20.90;13.70;;;;;;;3.59;77.36;97630.50;5090332;28;20024;-49
2022/04/02 05:13:04;;;;;;;17.10;13.15;;;;;;;3.60;77.42;97636.50;5092055;28;20016;-46
2022/04/02 05:15:30;;;;;;;14.77;13.18;;;;;;;3.64;77.25;97626.56;5091721;28;20066;-46
2022/04/02 05:17:56;;;;;;;16.77;12.70;;;;;;;3.58;76.74;97646.25;5090379;28;20021;-48
2022/04/02 05:20:22;;;;;;;20.08;14.00;;;;;;;3.58;77.22;97644.47;5091654;28;20024;-49
2022/04/02 05:22:48;;;;;;;15.52;13.10;;;;;;;3.54;77.03;97645.84;5091664;28;20103;-49
2022/04/02 05:25:16;;;;;;;16.65;13.52;;;;;;;3.48;77.04;97651.75;5091504;28;20032;-49
2022/04/02 05:27:43;;;;;;;12.90;10.23;;;;;;;3.38;76.61;97640.81;5091578;28;20055;-44
2022/04/02 05:30:11;;;;;;;12.85;11.32;;;;;;;3.29;76.93;97647.91;5091260;28;20075;-48
2022/04/02 05:32:37;;;;;;;31.15;24.80;;;;;;;3.28;77.57;97656.66;5090263;28;20146;-47
2022/04/02 05:35:04;;;;;;;11.35;10.10;;;;;;;3.39;77.89;97645.81;5091510;28;20021;-48
2022/04/02 05:37:30;;;;;;;19.85;13.07;;;;;;;3.44;77.69;97668.66;5090286;28;20032;-49
2022/04/02 05:39:56;;;;;;;15.27;12.25;;;;;;;3.55;77.18;97659.59;5094512;28;20027;-46
2022/04/02 05:42:23;;;;;;;18.70;11.82;;;;;;;3.57;76.74;97668.81;5095910;28;20039;-47
2022/04/02 05:44:49;;;;;;;24.15;16.77;;;;;;;3.56;76.79;97671.56;5093989;28;20025;-48
2022/04/02 05:47:15;;;;;;;13.23;11.80;;;;;;;3.57;76.94;97674.00;5095270;28;20103;-47
2022/04/02 05:49:41;;;;;;;16.85;12.52;;;;;;;3.67;77.64;97678.91;5093869;28;20020;-45
2022/04/02 05:52:07;;;;;;;16.75;11.25;;;;;;;3.85;77.65;97675.94;5093820;28;20344;-49
2022/04/02 05:54:36;;;;;;;14.50;11.55;;;;;;;3.83;75.73;97682.28;5095202;28;20397;-46
2022/04/02 05:57:04;;;;;;;13.88;11.38;;;;;;;3.60;75.31;97686.63;5095038;28;20054;-46
2022/04/02 05:59:30;;;;;;;13.60;11.50;;;;;;;3.60;76.93;97693.56;5093736;28;20031;-47
2022/04/02 06:01:56;;;;;;;19.65;12.73;;;;;;;3.62;76.49;97696.00;5094988;28;20052;-48
2022/04/02 06:04:23;;;;;;;21.63;12.32;;;;;;;3.62;77.20;97701.97;5094903;28;20389;-48
2022/04/02 06:06:49;;;;;;;11.18;9.98;;;;;;;3.75;77.08;97703.94;5094918;28;20049;-48
2022/04/02 06:09:15;;;;;;;12.50;9.50;;;;;;;3.74;76.22;97708.34;5093692;28;20104;-45
2022/04/02 06:11:41;;;;;;;11.45;8.48;;;;;;;3.61;76.12;97713.34;5094751;28;20028;-47
2022/04/02 06:14:06;;;;;;;29.83;17.85;;;;;;;3.56;76.47;97720.84;5094701;28;20103;-45
2022/04/02 06:16:32;;;;;;;11.88;10.23;;;;;;;3.57;76.13;97715.50;5094718;28;20020;-46
2022/04/02 06:18:58;;;;;;;16.58;13.38;;;;;;;3.62;76.93;97727.13;5094642;28;20498;-46
2022/04/02 06:21:24;;;;;;;12.40;10.27;;;;;;;3.59;76.56;97713.53;5094540;28;20028;-46
2022/04/02 06:23:50;;;;;;;19.52;14.50;;;;;;;3.46;76.55;97736.72;5094605;28;20016;-47
2022/04/02 06:26:15;;;;;;;18.27;12.80;;;;;;;3.55;77.84;97727.03;5094486;28;20031;-46
2022/04/02 06:28:43;;;;;;;16.80;12.85;;;;;;;3.60;77.44;97722.94;5094293;28;20064;-45
2022/04/02 06:31:09;;;;;;;10.48;9.35;;;;;;;3.62;77.07;97727.91;5094325;28;20072;-45
2022/04/02 06:33:35;;;;;;;16.90;13.18;;;;;;;3.52;76.82;97741.19;5094353;28;20020;-47
2022/04/02 06:36:01;;;;;;;18.38;13.48;;;;;;;3.54;76.36;97738.38;5094354;28;20020;-46
2022/04/02 06:38:27;;;;;;;16.25;12.80;;;;;;;3.59;78.08;97747.25;5094329;28;20035;-47
2022/04/02 06:40:53;;;;;;;21.60;13.88;;;;;;;3.72;77.51;97748.41;5092953;28;20024;-45
2022/04/02 06:43:20;;;;;;;15.65;12.50;;;;;;;3.80;78.40;97754.34;5092870;28;20028;-46
2022/04/02 06:45:46;;;;;;;24.23;16.63;;;;;;;3.83;77.36;97760.94;5094165;28;20501;-46
2022/04/02 06:48:13;;;;;;;24.10;11.88;;;;;;;3.78;77.16;97764.09;5094092;28;20043;-47
2022/04/02 06:50:40;;;;;;;14.18;10.98;;;;;;;3.76;76.81;97760.88;5093112;28;20020;-45
2022/04/02 06:53:07;;;;;;;17.60;14.40;;;;;;;3.73;77.35;97769.00;5093920;28;20135;-47
2022/04/02 06:55:33;;;;;;;13.02;11.63;;;;;;;3.72;76.39;97772.59;5093961;28;20091;-45
2022/04/02 06:58:00;;;;;;;17.02;11.27;;;;;;;3.68;76.06;97767.91;5092574;28;20124;-48
2022/04/02 07:00:26;;;;;;;9.50;7.70;;;;;;;3.69;76.90;97775.53;5092461;28;20025;-45
2022/04/02 07:02:52;;;;;;;14.98;10.98;;;;;;;3.70;77.00;97755.56;5093841;28;20027;-46
2022/04/02 07:05:18;;;;;;;32.70;18.92;;;;;;;3.64;76.71;97764.88;5093681;28;20028;-46
2022/04/02 07:07:49;;;;;;;17.40;12.55;;;;;;;3.72;76.74;97779.56;5093714;28;20028;-45
2022/04/02 07:10:15;;;;;;;13.75;11.07;;;;;;;3.75;76.33;97787.00;5093521;28;20028;-45
2022/04/02 07:12:41;;;;;;;13.52;10.20;;;;;;;3.74;75.53;97787.97;5093621;28;20493;-46
2022/04/02 07:15:08;;;;;;;14.52;12.38;;;;;;;3.71;75.70;97783.94;5093594;28;20024;-45
2022/04/02 07:17:35;;;;;;;17.02;13.20;;;;;;;3.76;76.09;97786.81;5092222;28;20088;-46
2022/04/02 07:20:02;;;;;;;20.77;13.30;;;;;;;3.93;76.14;97791.81;5093476;28;20024;-48
2022/04/02 07:22:27;;;;;;;19.75;12.13;;;;;;;4.04;75.71;97796.53;5092146;28;20079;-46
2022/04/02 07:24:55;;;;;;;14.15;10.48;;;;;;;4.04;74.34;97804.34;5093662;28;20153;-46
2022/04/02 07:27:23;;;;;;;24.88;19.70;;;;;;;4.09;75.14;97799.41;5093264;28;20032;-46
2022/04/02 07:29:52;;;;;;;12.18;8.57;;;;;;;4.19;74.88;97809.53;5093027;28;20096;-48
2022/04/02 07:32:19;;;;;;;10.20;7.72;;;;;;;4.24;74.83;97817.56;5093220;28;20016;-45
2022/04/02 07:34:45;;;;;;;12.75;9.68;;;;;;;4.34;73.86;97805.09;5093214;28;20035;-45
2022/04/02 07:37:29;;;;;;;13.68;12.20;;;;;;;4.30;73.25;97798.66;5093196;28;20042;-45
2022/04/02 07:40:08;;;;;;;17.90;11.38;;;;;;;4.15;72.78;97816.88;5093199;28;20020;-47
2022/04/02 07:43:07;;;;;;;37.83;30.60;;;;;;;4.18;73.24;97826.09;5093164;28;20102;-47
2022/04/02 07:45:47;;;;;;;24.17;18.45;;;;;;;4.34;73.71;97825.88;5089837;28;20122;-46
2022/04/02 07:48:16;;;;;;;19.98;13.07;;;;;;;4.50;73.81;97801.47;5093016;28;20020;-44
2022/04/02 07:50:46;;;;;;;13.18;9.02;;;;;;;4.42;73.89;97826.78;5091505;28;20020;-45
2022/04/02 07:53:21;;;;;;;14.55;9.82;;;;;;;4.41;73.38;97841.56;5091517;28;20028;-46
2022/04/02 07:56:02;;;;;;;12.35;10.40;;;;;;;4.54;72.97;97844.31;5092811;28;20024;-45
2022/04/02 07:58:31;;;;;;;10.43;9.02;;;;;;;4.64;72.79;97845.81;5092815;28;20401;-47
2022/04/02 08:01:00;;;;;;;14.23;10.75;;;;;;;4.70;71.74;97845.88;5091382;28;20020;-45
2022/04/02 08:03:28;;;;;;;16.58;11.00;;;;;;;4.74;71.25;97865.31;5092651;28;20024;-45
2022/04/02 08:05:55;;;;;;;14.43;9.60;;;;;;;4.71;71.32;97854.47;5092646;28;20035;-46
2022/04/02 08:08:25;;;;;;;13.23;10.23;;;;;;;4.70;71.21;97863.28;5092557;28;20020;-46
2022/04/02 08:10:54;;;;;;;13.02;11.63;;;;;;;4.73;71.91;97871.53;5092433;28;20024;-47
2022/04/02 08:13:22;;;;;;;10.57;9.43;;;;;;;4.74;72.47;97872.31;5092446;28;20107;-46
2022/04/02 08:15:51;;;;;;;13.10;10.70;;;;;;;4.68;71.93;97873.06;5092417;28;20508;-45
2022/04/02 08:18:20;;;;;;;12.40;9.38;;;;;;;4.62;72.87;97881.56;5092375;28;20505;-46
2022/04/02 08:20:49;;;;;;;20.00;10.18;;;;;;;4.58;73.14;97884.53;5092320;28;20490;-45
2022/04/02 08:23:15;;;;;;;14.50;11.93;;;;;;;4.59;73.49;97886.16;5092271;28;20016;-48
2022/04/02 08:25:59;;;;;;;15.18;10.75;;;;;;;4.62;74.43;97884.19;5092295;28;20476;-47
2022/04/02 08:28:46;;;;;;;22.60;11.68;;;;;;;4.62;74.67;97884.19;5091884;28;20046;-47
2022/04/02 08:31:57;;;;;;;87.38;75.68;;;;;;;4.54;74.25;97887.69;5092125;28;20095;-50
2022/04/02 08:34:55;;;;;;;18.40;12.40;;;;;;;4.54;74.63;97893.66;5077274;28;20062;-50
2022/04/02 08:37:27;;;;;;;;;;;;;;;4.55;75.34;97892.69;5092591;28;20061;-48
2022/04/02 08:40:01;;;;;;;10.63;8.70;;;;;;;4.49;73.65;97882.22;5092057;28;19916;-50
2022/04/02 08:43:02;;;;;;;14.05;9.95;;;;;;;4.33;73.86;97897.00;5090779;28;20028;-46
2022/04/02 08:45:33;;;;;;;13.02;10.65;;;;;;;4.37;74.60;97894.88;5092042;28;20020;-50
2022/04/02 08:48:16;;;;;;;13.65;12.15;;;;;;;4.35;74.36;97904.63;5091941;28;20401;-51
2022/04/02 08:50:47;;;;;;;17.98;14.93;;;;;;;4.55;75.43;97910.09;5091933;28;20024;-50
2022/04/02 08:53:37;;;;;;;15.65;11.25;;;;;;;4.65;74.18;97910.63;5090787;28;20028;-48
2022/04/02 08:56:06;;;;;;;12.27;8.00;;;;;;;4.69;73.82;97916.22;5090625;28;20397;-49
2022/04/02 08:58:34;;;;;;;20.13;17.95;;;;;;;4.78;74.66;97928.16;5091867;28;20024;-50
2022/04/02 09:01:10;;;;;;;12.40;8.45;;;;;;;4.92;74.00;97922.13;5091836;28;20031;-49
2022/04/02 09:03:56;;;;;;;121.20;88.05;;;;;;;4.77;72.46;97924.75;5090574;28;20028;-49
2022/04/02 09:06:28;;;;;;;81.18;54.13;;;;;;;4.74;73.18;97940.69;5060137;28;20126;-49
2022/04/02 09:09:07;;;;;;;19.00;13.55;;;;;;;4.81;73.26;97940.78;5091834;28;20407;-48
2022/04/02 09:12:11;;;;;;;20.30;17.67;;;;;;;4.97;74.25;97952.75;5091724;28;20082;-49
2022/04/02 09:15:10;;;;;;;14.95;12.57;;;;;;;5.07;73.29;97948.09;5090677;28;20039;-48
2022/04/02 09:17:42;;;;;;;14.13;11.52;;;;;;;5.21;73.00;97946.41;5061950;28;20521;-48
2022/04/02 09:20:28;;;;;;;11.02;9.48;;;;;;;5.24;71.71;97943.47;5095787;28;20028;-50
2022/04/02 09:23:20;;;;;;;11.48;9.65;;;;;;;5.05;70.83;97952.69;5080243;28;20065;-48
2022/04/02 09:26:04;;;;;;;11.00;7.55;;;;;;;4.93;70.49;97952.34;5095698;28;20036;-49
2022/04/02 09:28:52;;;;;;;12.25;9.60;;;;;;;4.94;72.06;97950.53;5094103;28;20110;-48
2022/04/02 09:31:50;;;;;;;11.55;9.25;;;;;;;5.10;72.23;97959.91;5094137;28;20032;-49
2022/04/02 09:35:06;;;;;;;23.80;20.08;;;;;;;5.20;71.43;97960.44;5095582;28;20039;-47
2022/04/02 09:37:56;;;;;;;10.02;9.02;;;;;;;5.17;71.02;97961.63;5070173;28;20046;-48
2022/04/02 09:40:33;;;;;;;9.40;8.45;;;;;;;5.32;71.37;97965.97;5094095;28;20705;-48
2022/04/02 09:43:05;;;;;;;86.68;66.40;;;;;;;5.48;70.58;97968.31;5094090;28;20478;-48
2022/04/02 09:45:43;;;;;;;853.42;590.03;;;;;;;5.59;71.10;97962.63;5095316;28;20036;-49
2022/04/02 09:48:23;;;;;;;182.45;100.15;;;;;;;5.52;68.94;97958.34;5095292;28;20032;-49
2022/04/02 09:50:54;;;;;;;35.08;19.88;;;;;;;5.49;69.42;97969.13;5093809;28;20493;-49
2022/04/02 09:53:29;;;;;;;11.68;6.68;;;;;;;5.40;68.54;97964.03;5095195;28;20034;-48
2022/04/02 09:56:33;;;;;;;18.38;10.50;;;;;;;5.33;68.82;97986.59;5095178;28;20024;-49
2022/04/02 09:59:05;;;;;;;18.15;10.70;;;;;;;5.35;69.46;97982.03;5095107;28;20031;-49
2022/04/02 10:01:55;;;;;;;11.50;9.45;;;;;;;5.28;68.43;97988.94;5094970;28;20023;-48
2022/04/02 10:04:50;;;;;;;23.25;12.68;;;;;;;5.29;69.63;97990.56;5084009;28;20082;-48
2022/04/02 10:07:36;;;;;;;11.43;8.52;;;;;;;5.24;69.10;97990.28;5094851;28;20024;-47
2022/04/02 10:10:03;;;;;;;23.58;17.83;;;;;;;5.16;68.69;97982.59;5093466;28;20409;-48
2022/04/02 10:12:29;;;;;;;51.35;35.65;;;;;;;5.23;68.56;97999.06;5094823;28;20031;-48
2022/04/02 10:15:00;;;;;;;35.13;24.20;;;;;;;5.35;68.21;97987.22;5094738;28;20016;-48
2022/04/02 10:17:28;;;;;;;19.85;14.07;;;;;;;5.34;68.00;97995.22;5094733;28;20410;-48
2022/04/02 10:19:59;;;;;;;18.85;13.10;;;;;;;5.43;67.87;98001.09;5094652;28;20103;-48
2022/04/02 10:22:38;;;;;;;10.80;7.93;;;;;;;5.50;67.04;97987.16;5093355;28;20063;-48
2022/04/02 10:25:10;;;;;;;10.70;7.60;;;;;;;5.38;66.48;98007.66;5093387;28;20028;-48
2022/04/02 10:27:42;;;;;;;14.07;12.50;;;;;;;5.43;66.34;97996.69;5094562;28;20020;-46
2022/04/02 10:30:12;;;;;;;12.57;10.50;;;;;;;5.38;66.83;98009.47;5092881;28;20051;-47
2022/04/02 10:32:52;;;;;;;10.65;9.55;;;;;;;5.45;67.83;98019.94;5094388;28;20107;-46
2022/04/02 10:35:20;;;;;;;11.60;8.77;;;;;;;5.57;67.11;98014.06;5094311;28;20032;-48
2022/04/02 10:38:10;;;;;;;12.57;8.45;;;;;;;5.60;66.50;98012.88;5094338;28;20020;-48
2022/04/02 10:40:43;;;;;;;8.02;5.20;;;;;;;5.59;66.80;97996.47;5094301;28;20051;-48
2022/04/02 10:43:24;;;;;;;9.30;7.20;;;;;;;5.57;66.22;98029.69;5094300;28;20397;-48
2022/04/02 10:45:51;;;;;;;9.40;6.88;;;;;;;5.64;66.72;98018.53;5094225;28;20039;-48
2022/04/02 10:48:40;;;;;;;8.52;7.63;;;;;;;5.64;65.10;98011.53;5094116;28;20016;-49
2022/04/02 10:51:08;;;;;;;5.50;4.68;;;;;;;5.55;64.73;98015.22;5093496;28;20382;-47
2022/04/02 10:53:40;;;;;;;9.23;5.88;;;;;;;5.57;65.09;98029.69;5094000;28;20016;-48
2022/04/02 10:56:17;;;;;;;11.25;7.78;;;;;;;5.69;65.49;98044.81;5092661;28;20035;-48
2022/04/02 10:58:50;;;;;;;7.60;4.78;;;;;;;5.69;64.74;98035.19;5093966;28;20030;-48
2022/04/02 11:01:22;;;;;;;9.05;6.15;;;;;;;5.67;64.48;98033.78;5093884;28;20103;-48
2022/04/02 11:03:55;;;;;;;8.88;7.68;;;;;;;5.69;65.49;98037.00;5093816;28;20058;-48
2022/04/02 11:06:44;;;;;;;9.80;6.93;;;;;;;5.71;66.68;98048.84;5092503;28;20032;-48
2022/04/02 11:09:28;;;;;;;10.23;6.55;;;;;;;5.85;66.07;98046.38;5093639;28;20020;-47
2022/04/02 11:11:57;;;;;;;9.27;7.57;;;;;;;5.90;65.57;98042.22;5093659;28;20492;-48
2022/04/02 11:14:23;;;;;;;7.78;5.90;;;;;;;5.96;65.49;98054.53;5109403;28;20453;-48
2022/04/02 11:16:48;;;;;;;7.50;6.80;;;;;;;6.09;65.13;98059.03;5092255;28;20028;-48
2022/04/02 11:22:11;;;;;;;6.75;6.15;;;;;;;6.10;65.34;98052.06;5093776;28;20532;-48
2022/04/02 11:24:54;;;;;;;13.35;6.60;;;;;;;6.09;66.11;98066.84;5092160;28;20024;-47
2022/04/02 11:27:24;;;;;;;9.32;7.63;;;;;;;6.26;64.66;98066.59;5092133;28;20028;-49
2022/04/02 11:29:51;;;;;;;6.72;5.10;;;;;;;6.28;62.69;98056.78;5091746;28;20047;-47
2022/04/02 11:32:28;;;;;;;16.52;7.25;;;;;;;6.31;64.20;98064.25;5091913;28;20031;-49
2022/04/02 11:34:55;;;;;;;10.00;6.38;;;;;;;6.40;62.77;98068.34;5093243;28;20031;-49
2022/04/02 11:37:29;;;;;;;10.07;5.20;;;;;;;6.33;62.40;98073.47;5074797;28;20028;-49
2022/04/02 11:40:06;;;;;;;10.15;9.10;;;;;;;6.42;62.74;98070.75;5093205;28;20024;-48
2022/04/02 11:42:36;;;;;;;10.50;8.50;;;;;;;6.47;62.81;98086.63;5093141;28;20024;-47
2022/04/02 11:45:10;;;;;;;8.48;6.60;;;;;;;6.62;62.40;98087.34;5091689;28;20020;-49
2022/04/02 11:47:40;;;;;;;9.10;6.03;;;;;;;6.63;61.03;98090.75;5093007;28;20028;-47
2022/04/02 11:50:08;;;;;;;6.72;6.03;;;;;;;6.58;61.23;98084.31;5091491;28;20074;-49